Bellingham, WA (98228)

10:57 PM PST on November 23, 2014 (GMT -0800)
Toledo Hill/West Racine St | Change Station
CLOSE
Current Station
Personal Weather Station
Location: Bellingham, WA
Elevation: 325 ft
Nearby Weather Stations

Elev 325 ft 48.74 °N, 122.45 °W | Updated 6 minutes ago

Clear
Clear
44.3 °F
Feels Like 44 °F
N
1.0
Wind Variable Wind from South
Gusts 8.0 mph

Today
High -- | Low -- °F
--% Chance of Precip.
Yesterday
High -- | Low -- °F
Precip. -- in
7:30 AM 4:21 PM
Waxing Crescent, 4% visible
Pressure 30.33 in
Visibility 10.0 miles
Clouds Clear
Windchill 44 °F
Dew Point 41 °F
Humidity 88%
Rainfall 0.22 in
Snow Depth Not available.
UV 0 out of 12
Pollen .10 out of 12
Air Quality Not available.
Flu Activity Not available.
METAR KBLI 240653Z AUTO 17004KT 10SM CLR 05/03 A3031 RMK AO2 SLP271 T00500033

More Conditions Fewer Conditions

Pressure 30.33 in
Visibility 10.0 miles
Clouds Clear
Windchill 44 °F
Dew Point 41 °F
Humidity 88%
Rainfall 0.22 in
Snow Depth Not available.
UV 0 out of 12
Pollen .10 out of 12
Air Quality Not available.
Flu Activity Not available.
METAR KBLI 240653Z AUTO 17004KT 10SM CLR 05/03 A3031 RMK AO2 SLP271 T00500033

More Conditions Fewer Conditions

10-Day Weather Forecast

Almanac

Astronomy

Nov. 23, 2014 Rise Set
Actual Time
Civil Twilight
Nautical Twilight
Astronomical Twilight
Moon
Length of Visible Light
Length of Day
Tomorrow will be .
, % of the Moon is Illuminated

Today's Extremes

State Highs State Lows

Community

WunderPhotos

Upload Photos

1,773,294 photos uploaded!

WunderBlogs® & News

Nearby

Air Quality

  Air Quality AQ Index Pollutant
Not available.

Snow Depth

Station Depth Elevation

Earthquake Activity

City Distance Mag. Time & Date
Minimum magnitude displayed is 2.5.

Coastal Water Temperatures

Place Temperature

Nearby Weather Stations